createdAt,value
2023-01-31T00:01:49.902Z,101277.31
2023-01-31T00:04:20.234Z,101279.09
2023-01-31T00:06:51.686Z,101282.28
2023-01-31T00:09:22.540Z,101279.09
2023-01-31T00:11:53.483Z,101283.38
2023-01-31T00:14:25.085Z,101278.09
2023-01-31T00:16:58.114Z,101291.84
2023-01-31T00:19:28.821Z,101287.94
2023-01-31T00:21:59.343Z,101291.72
2023-01-31T00:24:29.556Z,101291.44
2023-01-31T00:26:59.834Z,101294.72
2023-01-31T00:29:30.289Z,101290.22
2023-01-31T00:32:04.215Z,101279.59
2023-01-31T00:34:34.778Z,101291.09
2023-01-31T00:37:05.019Z,101286.47
2023-01-31T00:39:36.378Z,101294.34
2023-01-31T00:42:06.587Z,101295.03
2023-01-31T00:44:37.201Z,101285.06
2023-01-31T00:47:10.512Z,101294.56
2023-01-31T00:49:40.658Z,101304.00
2023-01-31T00:52:10.996Z,101306.00
2023-01-31T00:54:43.009Z,101318.63
2023-01-31T00:57:13.415Z,101317.97
2023-01-31T00:59:43.742Z,101312.00
2023-01-31T01:02:16.618Z,101327.56
2023-01-31T01:04:47.331Z,101311.03
2023-01-31T01:07:17.587Z,101325.25
2023-01-31T01:09:47.841Z,101323.38
2023-01-31T01:12:17.990Z,101322.09
2023-01-31T01:14:48.770Z,101320.50
2023-01-31T01:17:21.871Z,101333.56
2023-01-31T01:19:52.573Z,101344.72
2023-01-31T01:22:22.801Z,101334.88
2023-01-31T01:24:52.861Z,101338.56
2023-01-31T01:27:23.195Z,101350.09
2023-01-31T01:29:53.441Z,101345.13
2023-01-31T01:32:26.669Z,101351.09
2023-01-31T01:34:56.844Z,101349.41
2023-01-31T01:37:28.309Z,101344.34
2023-01-31T01:40:00.215Z,101358.38
2023-01-31T01:42:30.876Z,101371.53
2023-01-31T01:45:04.097Z,101357.97
2023-01-31T01:47:40.383Z,101356.16
2023-01-31T01:50:16.367Z,101358.38
2023-01-31T01:52:48.836Z,101372.19
2023-01-31T01:55:22.738Z,101370.22
2023-01-31T01:57:54.616Z,101372.50
2023-01-31T02:00:26.469Z,101394.22
2023-01-31T02:03:01.269Z,101385.16
2023-01-31T02:05:33.913Z,101385.56
2023-01-31T02:08:05.264Z,101379.19
2023-01-31T02:10:37.319Z,101377.91
2023-01-31T02:13:10.638Z,101389.28
2023-01-31T02:15:40.875Z,101376.91
2023-01-31T02:18:13.937Z,101371.34
2023-01-31T02:21:03.736Z,101376.31
2023-01-31T02:23:46.605Z,101365.25
2023-01-31T02:26:30.479Z,101374.50
2023-01-31T02:29:16.158Z,101377.53
2023-01-31T02:31:57.252Z,101376.41
2023-01-31T02:34:35.231Z,101385.88
2023-01-31T02:37:14.279Z,101398.03
2023-01-31T02:39:46.429Z,101394.34
2023-01-31T02:42:19.035Z,101394.75
2023-01-31T02:44:59.653Z,101389.25
2023-01-31T02:47:36.920Z,101385.34
2023-01-31T02:50:15.284Z,101394.13
2023-01-31T02:52:50.002Z,101396.13
2023-01-31T02:55:35.073Z,101403.09
2023-01-31T02:58:06.893Z,101407.59
2023-01-31T03:00:38.751Z,101404.41
2023-01-31T03:03:10.908Z,101393.53
2023-01-31T03:05:44.609Z,101402.91
2023-01-31T03:08:23.172Z,101388.25
2023-01-31T03:10:59.200Z,101397.31
2023-01-31T03:13:36.700Z,101401.81
2023-01-31T03:16:26.567Z,101390.03
2023-01-31T03:19:02.109Z,101381.88
2023-01-31T03:21:37.372Z,101393.63
2023-01-31T03:24:09.786Z,101372.50
2023-01-31T03:26:39.973Z,101391.97
2023-01-31T03:29:11.604Z,101381.75
2023-01-31T03:31:44.321Z,101374.09
2023-01-31T03:34:16.934Z,101342.63
2023-01-31T03:36:54.356Z,101373.09
2023-01-31T03:39:55.204Z,101362.25
2023-01-31T03:42:28.185Z,101364.94
2023-01-31T03:45:03.155Z,101367.53
2023-01-31T03:47:36.066Z,101359.06
2023-01-31T03:50:09.289Z,101361.84
2023-01-31T03:52:46.494Z,101353.59
2023-01-31T03:55:19.535Z,101351.56
2023-01-31T03:57:53.710Z,101353.88
2023-01-31T04:00:25.640Z,101345.50
2023-01-31T04:03:03.931Z,101353.88
2023-01-31T04:05:35.476Z,101365.63
2023-01-31T04:08:10.087Z,101352.28
2023-01-31T04:10:40.563Z,101343.91
2023-01-31T04:13:10.721Z,101344.63
2023-01-31T04:15:41.155Z,101356.84
2023-01-31T04:18:12.041Z,101352.38
2023-01-31T04:20:42.116Z,101338.84
2023-01-31T04:23:14.804Z,101348.78
2023-01-31T04:25:44.789Z,101357.84
2023-01-31T04:28:15.326Z,101366.91
2023-01-31T04:30:45.526Z,101365.78
2023-01-31T04:33:15.653Z,101371.47
2023-01-31T04:35:47.946Z,101369.00
2023-01-31T04:38:20.766Z,101366.22
2023-01-31T04:40:50.899Z,101371.19
2023-01-31T04:43:21.193Z,101369.72
2023-01-31T04:45:51.562Z,101368.75
2023-01-31T04:48:21.627Z,101370.53
2023-01-31T04:50:51.829Z,101369.41
2023-01-31T04:53:24.662Z,101370.81
2023-01-31T04:55:56.393Z,101370.53
2023-01-31T04:58:26.619Z,101372.22
2023-01-31T05:00:56.808Z,101381.00
2023-01-31T05:03:27.069Z,101374.91
2023-01-31T05:05:57.075Z,101373.63
2023-01-31T05:08:29.773Z,101380.47
2023-01-31T05:11:02.926Z,101377.78
2023-01-31T05:13:34.764Z,101373.91
2023-01-31T05:16:04.973Z,101377.69
2023-01-31T05:18:35.264Z,101381.00
2023-01-31T05:21:05.605Z,101376.09
2023-01-31T05:23:39.041Z,101371.53
2023-01-31T05:26:09.208Z,101373.63
2023-01-31T05:28:39.404Z,101358.28
2023-01-31T05:31:11.553Z,101358.97
2023-01-31T05:33:41.651Z,101351.19
2023-01-31T05:36:12.188Z,101344.34
2023-01-31T05:38:45.363Z,101355.88
2023-01-31T05:41:15.403Z,101355.41
2023-01-31T05:43:45.431Z,101357.38
2023-01-31T05:46:15.648Z,101350.69
2023-01-31T05:48:45.676Z,101348.63
2023-01-31T05:51:15.963Z,101353.97
2023-01-31T05:53:48.802Z,101349.00
2023-01-31T05:56:19.547Z,101349.59
2023-01-31T05:58:50.680Z,101345.91
2023-01-31T06:01:22.891Z,101342.41
2023-01-31T06:03:53.229Z,101337.81
2023-01-31T06:06:35.983Z,101331.41
2023-01-31T06:09:09.256Z,101331.81
2023-01-31T06:11:39.468Z,101338.09
2023-01-31T06:14:09.529Z,101323.50
2023-01-31T06:16:39.706Z,101327.69
2023-01-31T06:19:09.867Z,101333.06
2023-01-31T06:21:40.028Z,101327.56
2023-01-31T06:24:12.917Z,101324.56
2023-01-31T06:26:43.287Z,101329.94
2023-01-31T06:29:13.312Z,101322.47
2023-01-31T06:31:46.175Z,101324.94
2023-01-31T06:34:16.313Z,101327.13
2023-01-31T06:36:46.421Z,101323.06
2023-01-31T06:39:19.135Z,101318.44
2023-01-31T06:41:49.658Z,101313.88
2023-01-31T06:44:19.793Z,101309.06
2023-01-31T06:46:49.887Z,101307.84
2023-01-31T06:49:20.022Z,101300.19
2023-01-31T06:51:50.493Z,101297.69
2023-01-31T06:54:23.134Z,101296.28
2023-01-31T06:56:53.817Z,101295.56
2023-01-31T06:59:23.888Z,101295.06
2023-01-31T07:01:54.661Z,101290.06
2023-01-31T07:04:24.969Z,101289.56
2023-01-31T07:06:55.168Z,101284.78
2023-01-31T07:09:27.902Z,101278.38
2023-01-31T07:11:57.983Z,101276.97
2023-01-31T07:14:28.395Z,101276.66
2023-01-31T07:16:58.474Z,101265.22
2023-01-31T07:19:28.691Z,101238.88
2023-01-31T07:21:58.743Z,101231.78
2023-01-31T07:24:31.478Z,101240.53
2023-01-31T07:27:01.697Z,101233.97
2023-01-31T07:29:32.461Z,101223.25
2023-01-31T07:32:02.702Z,101224.16
2023-01-31T07:34:33.407Z,101227.34
2023-01-31T07:37:04.014Z,101222.91
2023-01-31T07:39:36.798Z,101205.94
2023-01-31T07:42:07.019Z,101213.78
2023-01-31T07:44:37.346Z,101203.16
2023-01-31T07:47:07.625Z,101199.97
2023-01-31T07:49:37.805Z,101200.72
2023-01-31T07:52:08.574Z,101202.19
2023-01-31T07:54:42.080Z,101202.03
2023-01-31T07:57:13.266Z,101200.97
2023-01-31T07:59:43.344Z,101202.06
2023-01-31T08:02:27.435Z,101191.56
2023-01-31T08:04:57.663Z,101192.13
2023-01-31T08:07:28.376Z,101182.69
2023-01-31T08:10:00.964Z,101181.28
2023-01-31T08:12:32.043Z,101170.78
2023-01-31T08:15:02.124Z,101166.41
2023-01-31T08:17:32.827Z,101160.00
2023-01-31T08:20:03.621Z,101164.66
2023-01-31T08:22:33.680Z,101161.44
2023-01-31T08:25:06.930Z,101160.75
2023-01-31T08:27:37.079Z,101156.09
2023-01-31T08:30:07.803Z,101150.25
2023-01-31T08:32:37.967Z,101146.13
2023-01-31T08:35:08.636Z,101148.63
2023-01-31T08:37:38.880Z,101146.31
2023-01-31T08:40:12.661Z,101146.50
2023-01-31T08:42:43.279Z,101137.06
2023-01-31T08:45:13.880Z,101133.13
2023-01-31T08:47:44.193Z,101126.53
2023-01-31T08:50:26.941Z,101125.66
2023-01-31T08:52:58.314Z,101129.78
2023-01-31T08:55:31.301Z,101119.41
2023-01-31T08:58:02.304Z,101110.84
2023-01-31T09:00:32.560Z,101098.16
2023-01-31T09:03:03.595Z,101105.13
2023-01-31T09:05:35.024Z,101101.22
2023-01-31T09:08:05.145Z,101097.47
2023-01-31T09:10:37.878Z,101092.63
2023-01-31T09:13:08.177Z,101101.56
2023-01-31T09:15:38.218Z,101090.31
2023-01-31T09:18:08.336Z,101093.88
2023-01-31T09:20:38.548Z,101101.72
2023-01-31T09:23:08.572Z,101095.84
2023-01-31T09:25:46.871Z,101103.34
2023-01-31T09:28:17.612Z,101104.59
2023-01-31T09:30:47.802Z,101099.72
2023-01-31T09:33:18.112Z,101104.38
2023-01-31T09:35:57.845Z,101098.28
2023-01-31T09:38:28.564Z,101083.41
2023-01-31T09:41:03.464Z,101078.72
2023-01-31T09:43:36.711Z,101081.00
2023-01-31T09:46:09.124Z,101080.28
2023-01-31T09:48:42.544Z,101068.16
2023-01-31T09:51:15.052Z,101045.13
2023-01-31T09:53:45.626Z,101038.16
2023-01-31T09:56:23.666Z,101046.03
2023-01-31T09:58:59.077Z,101056.75
2023-01-31T10:01:31.824Z,101048.94
2023-01-31T10:04:12.330Z,101054.44
2023-01-31T10:06:46.447Z,101043.03
2023-01-31T10:09:20.957Z,101045.38
2023-01-31T10:11:55.305Z,101044.34
2023-01-31T10:14:31.804Z,101030.59
2023-01-31T10:17:06.894Z,101041.84
2023-01-31T10:19:42.538Z,101039.53
2023-01-31T10:22:15.328Z,101028.97
2023-01-31T10:24:48.920Z,101017.41
2023-01-31T10:27:24.610Z,101016.16
2023-01-31T10:29:57.470Z,101017.78
2023-01-31T10:32:31.527Z,101018.16
2023-01-31T10:35:05.602Z,101013.16
2023-01-31T10:37:40.275Z,101005.16
2023-01-31T10:40:16.731Z,100998.72
2023-01-31T10:42:52.806Z,100992.31
2023-01-31T10:45:23.833Z,100989.09
2023-01-31T10:47:56.778Z,100983.38
2023-01-31T10:50:31.469Z,100974.84
2023-01-31T10:53:11.839Z,100948.41
2023-01-31T10:55:50.668Z,100958.38
2023-01-31T10:58:25.212Z,100944.13
2023-01-31T11:00:55.512Z,100938.41
2023-01-31T11:03:25.822Z,100939.47
2023-01-31T11:05:56.824Z,100936.28
2023-01-31T11:08:36.777Z,100935.19
2023-01-31T11:11:09.048Z,100948.41
2023-01-31T11:13:42.783Z,100917.34
2023-01-31T11:16:14.596Z,100918.78
2023-01-31T11:18:47.681Z,100905.94
2023-01-31T11:21:23.145Z,100901.59
2023-01-31T11:23:54.075Z,100910.91
2023-01-31T11:26:28.260Z,100909.09
2023-01-31T11:29:01.584Z,100910.00
2023-01-31T11:31:33.742Z,100913.41
2023-01-31T11:34:04.507Z,100900.56
2023-01-31T11:36:35.742Z,100893.44
2023-01-31T11:39:21.047Z,100905.19
2023-01-31T11:41:51.267Z,100896.81
2023-01-31T11:44:24.636Z,100892.72
2023-01-31T11:46:56.164Z,100882.72
2023-01-31T11:49:30.354Z,100873.09
2023-01-31T11:52:01.517Z,100873.09
2023-01-31T11:54:33.790Z,100882.72
2023-01-31T11:57:04.598Z,100875.94
2023-01-31T11:59:37.851Z,100861.28
2023-01-31T12:02:08.389Z,100844.13
2023-01-31T12:04:44.184Z,100850.59
2023-01-31T12:07:24.326Z,100842.38
2023-01-31T12:09:54.648Z,100840.94
2023-01-31T12:12:26.486Z,100839.34
2023-01-31T12:15:02.594Z,100841.63
2023-01-31T12:17:34.268Z,100833.56
2023-01-31T12:20:27.050Z,100821.44
2023-01-31T12:23:03.256Z,100828.41
2023-01-31T12:25:44.168Z,100799.66
2023-01-31T12:28:22.604Z,100810.22
2023-01-31T12:31:04.249Z,100833.06
2023-01-31T12:33:48.111Z,100818.13
2023-01-31T12:36:25.020Z,100832.75
2023-01-31T12:39:02.091Z,100835.06
2023-01-31T12:41:35.130Z,100839.16
2023-01-31T12:44:32.520Z,100829.16
2023-01-31T12:47:13.068Z,100812.25
2023-01-31T12:50:00.932Z,100832.41
2023-01-31T12:52:39.864Z,100841.88
2023-01-31T12:55:17.211Z,100834.94
2023-01-31T12:57:50.023Z,100843.50
2023-01-31T13:00:27.800Z,100839.25
2023-01-31T13:03:07.415Z,100826.03
2023-01-31T13:05:42.357Z,100844.19
2023-01-31T13:08:18.720Z,100852.09
2023-01-31T13:10:51.100Z,100857.59
2023-01-31T13:13:25.297Z,100855.13
2023-01-31T13:15:58.040Z,100839.75
2023-01-31T13:18:31.863Z,100844.94
2023-01-31T13:21:04.038Z,100845.66
2023-01-31T13:23:36.178Z,100844.41
2023-01-31T13:26:10.500Z,100818.41
2023-01-31T13:28:44.712Z,100825.50
2023-01-31T13:31:18.861Z,100841.00
2023-01-31T13:33:53.916Z,100827.84
2023-01-31T13:36:30.367Z,100836.00
2023-01-31T13:39:03.820Z,100816.06
2023-01-31T13:41:34.640Z,100830.31
2023-01-31T13:44:05.094Z,100820.69
2023-01-31T13:46:36.868Z,100828.19
2023-01-31T13:49:12.557Z,100831.38
2023-01-31T13:51:46.043Z,100815.88
2023-01-31T13:54:20.392Z,100805.88
2023-01-31T13:56:53.156Z,100799.44
2023-01-31T13:59:24.689Z,100800.69
2023-01-31T14:01:55.602Z,100773.63
2023-01-31T14:04:30.559Z,100794.09
2023-01-31T14:07:16.482Z,100800.00
2023-01-31T14:09:47.675Z,100796.97
2023-01-31T14:12:34.842Z,100798.19
2023-01-31T14:15:13.119Z,100796.06
2023-01-31T14:17:58.121Z,100800.72
2023-01-31T14:20:31.412Z,100799.44
2023-01-31T14:23:25.509Z,100789.25
2023-01-31T14:25:59.102Z,100787.47
2023-01-31T14:28:29.795Z,100786.72
2023-01-31T14:30:59.809Z,100781.38
2023-01-31T14:33:31.181Z,100781.34
2023-01-31T14:36:17.050Z,100784.00
2023-01-31T14:38:53.593Z,100777.72
2023-01-31T14:41:32.003Z,100770.94
2023-01-31T14:44:07.417Z,100779.31
2023-01-31T14:46:47.528Z,100766.81
2023-01-31T14:49:35.021Z,100774.50
2023-01-31T14:52:18.437Z,100761.09
2023-01-31T14:55:01.687Z,100769.28
2023-01-31T14:57:33.855Z,100773.00
2023-01-31T15:00:05.352Z,100772.31
2023-01-31T15:02:54.292Z,100766.78
2023-01-31T15:05:27.881Z,100766.38
2023-01-31T15:08:05.643Z,100768.88
2023-01-31T15:10:50.636Z,100768.31
2023-01-31T15:13:37.503Z,100771.56
2023-01-31T15:16:09.596Z,100781.19
2023-01-31T15:18:39.913Z,100779.59
2023-01-31T15:21:10.340Z,100772.09
2023-01-31T15:23:44.843Z,100763.00
2023-01-31T15:26:17.493Z,100769.22
2023-01-31T15:28:47.861Z,100773.69
2023-01-31T15:31:20.458Z,100775.44
2023-01-31T15:33:53.163Z,100765.44
2023-01-31T15:36:28.134Z,100768.09
2023-01-31T15:39:03.956Z,100769.34
2023-01-31T15:41:39.143Z,100761.47
2023-01-31T15:44:16.287Z,100762.50
2023-01-31T15:46:47.072Z,100752.88
2023-01-31T15:49:38.572Z,100751.59
2023-01-31T15:52:16.893Z,100746.00
2023-01-31T15:55:00.414Z,100752.97
2023-01-31T15:57:32.204Z,100741.69
2023-01-31T16:00:02.498Z,100762.06
2023-01-31T16:02:38.028Z,100760.63
2023-01-31T16:05:08.763Z,100759.88
2023-01-31T16:07:39.026Z,100767.38
2023-01-31T16:10:15.786Z,100772.94
2023-01-31T16:12:47.321Z,100774.94
2023-01-31T16:15:20.767Z,100786.03
2023-01-31T16:17:52.225Z,100802.88
2023-01-31T16:20:37.433Z,100804.69
2023-01-31T16:23:08.380Z,100815.44
2023-01-31T16:25:41.123Z,100808.53
2023-01-31T16:28:15.178Z,100815.69
2023-01-31T16:30:45.820Z,100852.28
2023-01-31T16:33:19.149Z,100861.94
2023-01-31T16:35:49.232Z,100841.09
2023-01-31T16:38:21.528Z,100829.56
2023-01-31T16:40:56.192Z,100791.78
2023-01-31T16:43:27.648Z,100802.50
2023-01-31T16:45:58.737Z,100804.44
2023-01-31T16:48:31.863Z,100800.16
2023-01-31T16:51:02.999Z,100802.13
2023-01-31T16:53:34.649Z,100817.66
2023-01-31T16:56:19.804Z,100810.00
2023-01-31T16:58:54.016Z,100811.78
2023-01-31T17:01:28.588Z,100811.03
2023-01-31T17:04:04.157Z,100824.94
2023-01-31T17:06:35.353Z,100817.78
2023-01-31T17:09:05.869Z,100826.47
2023-01-31T17:11:43.174Z,100819.69
2023-01-31T17:14:14.091Z,100811.06
2023-01-31T17:16:47.153Z,100809.28
2023-01-31T17:19:17.266Z,100813.38
2023-01-31T17:21:49.731Z,100802.31
2023-01-31T17:24:22.830Z,100802.34
2023-01-31T17:26:54.101Z,100808.78
2023-01-31T17:29:26.106Z,100814.56
2023-01-31T17:31:59.072Z,100810.63
2023-01-31T17:34:29.187Z,100812.41
2023-01-31T17:36:59.295Z,100809.75
2023-01-31T17:39:29.413Z,100822.59
2023-01-31T17:41:59.623Z,100809.06
2023-01-31T17:44:29.838Z,100808.13
2023-01-31T17:47:02.496Z,100804.69
2023-01-31T17:49:35.044Z,100811.59
2023-01-31T17:52:05.368Z,100802.66
2023-01-31T17:54:35.466Z,100800.13
2023-01-31T17:57:05.651Z,100806.56
2023-01-31T17:59:35.815Z,100814.56
2023-01-31T18:02:08.752Z,100820.97
2023-01-31T18:04:38.913Z,100827.53
2023-01-31T18:07:09.234Z,100821.09
2023-01-31T18:09:39.677Z,100825.41
2023-01-31T18:12:10.063Z,100823.59
2023-01-31T18:14:40.111Z,100818.97
2023-01-31T18:17:12.778Z,100819.34
2023-01-31T18:19:43.178Z,100824.34
2023-01-31T18:22:14.383Z,100838.28
2023-01-31T18:24:44.860Z,100839.91
2023-01-31T18:27:15.384Z,100847.22
2023-01-31T18:29:45.800Z,100863.59
2023-01-31T18:32:20.235Z,100853.06
2023-01-31T18:34:50.526Z,100865.56
2023-01-31T18:37:22.209Z,100853.59
2023-01-31T18:39:52.733Z,100844.50
2023-01-31T18:42:23.147Z,100850.41
2023-01-31T18:44:53.169Z,100851.47
2023-01-31T18:47:25.952Z,100852.00
2023-01-31T18:49:56.441Z,100846.63
2023-01-31T18:52:26.744Z,100840.94
2023-01-31T18:54:57.034Z,100857.91
2023-01-31T18:57:27.153Z,100860.22
2023-01-31T18:59:57.390Z,100866.13
2023-01-31T19:02:30.149Z,100867.91
2023-01-31T19:05:00.493Z,100878.25
2023-01-31T19:07:30.808Z,100878.41
2023-01-31T19:10:00.877Z,100872.50
2023-01-31T19:12:31.049Z,100877.72
2023-01-31T19:15:01.277Z,100869.63
2023-01-31T19:17:34.067Z,100885.53
2023-01-31T19:20:04.278Z,100872.13
2023-01-31T19:22:34.386Z,100878.78
2023-01-31T19:25:05.549Z,100885.38
2023-01-31T19:27:35.538Z,100879.31
2023-01-31T19:30:06.059Z,100895.75
2023-01-31T19:32:38.953Z,100892.91
2023-01-31T19:35:09.885Z,100895.06
2023-01-31T19:37:39.944Z,100849.63
2023-01-31T19:40:10.741Z,100887.97
2023-01-31T19:42:42.406Z,100896.91
2023-01-31T19:45:19.838Z,100901.72
2023-01-31T19:47:57.288Z,100902.06
2023-01-31T19:50:28.450Z,100898.13
2023-01-31T19:52:58.569Z,100909.03
2023-01-31T19:55:28.632Z,100909.72
2023-01-31T19:57:58.730Z,100911.38
2023-01-31T20:00:28.953Z,100910.66
2023-01-31T20:03:02.043Z,100913.34
2023-01-31T20:05:32.310Z,100922.47
2023-01-31T20:08:02.566Z,100911.38
2023-01-31T20:10:32.778Z,100911.94
2023-01-31T20:13:02.936Z,100913.41
2023-01-31T20:15:33.547Z,100916.47
2023-01-31T20:18:06.268Z,100916.28
2023-01-31T20:20:36.449Z,100913.09
2023-01-31T20:23:08.355Z,100913.81
2023-01-31T20:25:38.602Z,100917.91
2023-01-31T20:28:08.783Z,100910.41
2023-01-31T20:30:39.094Z,100915.53
2023-01-31T20:33:11.993Z,100918.59
2023-01-31T20:35:42.556Z,100921.09
2023-01-31T20:38:13.183Z,100910.03
2023-01-31T20:40:45.218Z,100906.66
2023-01-31T20:43:15.323Z,100895.06
2023-01-31T20:45:45.876Z,100909.13
2023-01-31T20:48:19.213Z,100901.28
2023-01-31T20:50:56.584Z,100904.50
2023-01-31T20:53:28.720Z,100899.69
2023-01-31T20:56:00.960Z,100904.16
2023-01-31T20:58:32.627Z,100895.75
2023-01-31T21:01:05.768Z,100891.50
2023-01-31T21:03:39.103Z,100900.56
2023-01-31T21:06:10.036Z,100884.00
2023-01-31T21:08:40.540Z,100882.03
2023-01-31T21:11:11.571Z,100888.44
2023-01-31T21:13:43.913Z,100900.59
2023-01-31T21:16:15.775Z,100912.50
2023-01-31T21:18:49.485Z,100913.75
2023-01-31T21:21:23.496Z,100911.59
2023-01-31T21:23:54.857Z,100916.94
2023-01-31T21:26:26.844Z,100913.56
2023-01-31T21:28:57.161Z,100915.88
2023-01-31T21:31:27.293Z,100919.09
2023-01-31T21:34:05.470Z,100916.94
2023-01-31T21:36:36.932Z,100908.72
2023-01-31T21:39:07.187Z,100908.72
2023-01-31T21:41:49.674Z,100909.06
2023-01-31T21:44:20.001Z,100909.41
2023-01-31T21:46:50.272Z,100906.75
2023-01-31T21:49:23.167Z,100913.16
2023-01-31T21:51:53.205Z,100896.94
2023-01-31T21:54:23.412Z,100898.34
2023-01-31T21:56:53.736Z,100894.78
2023-01-31T21:59:24.239Z,100906.41
2023-01-31T22:01:54.704Z,100899.44
2023-01-31T22:04:27.553Z,100899.78
2023-01-31T22:06:58.272Z,100900.31
2023-01-31T22:09:28.533Z,100897.44
2023-01-31T22:11:58.541Z,100910.47
2023-01-31T22:14:28.773Z,100917.75
2023-01-31T22:16:59.071Z,100911.34
2023-01-31T22:19:31.977Z,100907.97
2023-01-31T22:22:02.236Z,100909.56
2023-01-31T22:24:32.717Z,100871.91
2023-01-31T22:27:02.879Z,100912.25
2023-01-31T22:29:33.081Z,100902.25
2023-01-31T22:32:03.243Z,100909.75
2023-01-31T22:34:36.122Z,100907.59
2023-01-31T22:37:06.450Z,100905.09
2023-01-31T22:39:36.781Z,100904.03
2023-01-31T22:42:07.019Z,100903.31
2023-01-31T22:44:37.278Z,100903.69
2023-01-31T22:47:07.497Z,100900.28
2023-01-31T22:49:40.291Z,100886.22
2023-01-31T22:52:10.424Z,100894.78
2023-01-31T22:54:40.887Z,100894.44
2023-01-31T22:57:11.085Z,100892.44
2023-01-31T22:59:41.238Z,100893.13
2023-01-31T23:02:11.332Z,100892.06
2023-01-31T23:04:44.339Z,100889.41
2023-01-31T23:07:15.035Z,100897.97
2023-01-31T23:09:45.260Z,100881.75
2023-01-31T23:12:15.370Z,100889.41
2023-01-31T23:14:46.042Z,100904.75
2023-01-31T23:17:28.555Z,100892.44
2023-01-31T23:20:01.473Z,100897.63
2023-01-31T23:22:31.670Z,100901.38
2023-01-31T23:25:02.370Z,100903.50
2023-01-31T23:27:32.826Z,100898.19
2023-01-31T23:30:02.993Z,100896.25
2023-01-31T23:32:33.137Z,100895.91
2023-01-31T23:35:06.393Z,100883.78
2023-01-31T23:37:37.219Z,100894.31
2023-01-31T23:40:07.652Z,100887.91
2023-01-31T23:42:38.128Z,100888.25
2023-01-31T23:45:09.529Z,100881.84
2023-01-31T23:47:42.751Z,100882.75
2023-01-31T23:50:16.012Z,100893.59
2023-01-31T23:52:46.148Z,100885.94
2023-01-31T23:55:18.344Z,100881.84
2023-01-31T23:57:48.401Z,100890.03
